DAL857 KSWF-BIKF
Flight info
| Callsign | DAL857 |
|---|---|
| Flight time | N/A |
| Altitude | 16000 |
| Route | STUBY V487 BOWAN/N0376F170 V487 CAM/N0453F350 DCT ENE DCT EBONY N567B TUDEP/M079F370 DCT 53N050W 58N040W 62N030W DCT ELREX DCT ELDIS ELDIS4N |
| Aircraft | A20N/M-SDE2E3FGHIRWXY/LB1 |
Departure
| Time | 2026-05-05 21:49 |
|---|---|
| Airport | New York Stewart International Airport (KSWF) |
Arrival
| Time | N/A |
|---|---|
| Airport | Keflavik International Airport (BIKF) |
| Time | Latitude | Longitude | Altitude | Speed | Heading |
|---|---|---|---|---|---|
| 2026-05-05 21:16 | 41.49821 | -74.09955 | 490 ft | 0 kts | 270° |
| 2026-05-05 21:39 | 41.49821 | -74.09946 | 462 ft | 3 kts | 270° |
| 2026-05-05 21:39 | 41.49821 | -74.09934 | 462 ft | 3 kts | 268° |
| 2026-05-05 21:40 | 41.49821 | -74.09906 | 462 ft | 3 kts | 268° |
| 2026-05-05 21:40 | 41.49822 | -74.09882 | 461 ft | 2 kts | 278° |
| 2026-05-05 21:40 | 41.49819 | -74.09869 | 460 ft | 2 kts | 312° |
| 2026-05-05 21:40 | 41.49812 | -74.09861 | 459 ft | 1 kts | 334° |
| 2026-05-05 21:41 | 41.49805 | -74.09857 | 454 ft | 0 kts | 338° |
| 2026-05-05 21:43 | 41.49806 | -74.09857 | 454 ft | 1 kts | 338° |
| 2026-05-05 21:44 | 41.49834 | -74.09872 | 459 ft | 8 kts | 339° |
| 2026-05-05 21:44 | 41.49891 | -74.09900 | 464 ft | 9 kts | 339° |
| 2026-05-05 21:44 | 41.49949 | -74.09920 | 467 ft | 8 kts | 1° |
| 2026-05-05 21:44 | 41.50005 | -74.09904 | 468 ft | 8 kts | 15° |
| 2026-05-05 21:45 | 41.50056 | -74.09884 | 469 ft | 7 kts | 17° |
| 2026-05-05 21:45 | 41.50105 | -74.09864 | 470 ft | 7 kts | 16° |
| 2026-05-05 21:45 | 41.50158 | -74.09843 | 471 ft | 9 kts | 16° |
| 2026-05-05 21:45 | 41.50243 | -74.09811 | 470 ft | 15 kts | 15° |
| 2026-05-05 21:46 | 41.50350 | -74.09785 | 473 ft | 16 kts | 8° |
| 2026-05-05 21:46 | 41.50428 | -74.09688 | 470 ft | 19 kts | 77° |
| 2026-05-05 21:46 | 41.50457 | -74.09507 | 469 ft | 21 kts | 78° |
| 2026-05-05 21:46 | 41.50487 | -74.09308 | 468 ft | 23 kts | 78° |
| 2026-05-05 21:47 | 41.50520 | -74.09093 | 470 ft | 23 kts | 78° |
| 2026-05-05 21:47 | 41.50551 | -74.08892 | 473 ft | 17 kts | 77° |
| 2026-05-05 21:47 | 41.50597 | -74.08819 | 473 ft | 10 kts | 17° |
| 2026-05-05 21:47 | 41.50667 | -74.08831 | 472 ft | 12 kts | 348° |
| 2026-05-05 21:48 | 41.50723 | -74.08909 | 470 ft | 14 kts | 279° |
| 2026-05-05 21:48 | 41.50710 | -74.09038 | 471 ft | 14 kts | 258° |
| 2026-05-05 21:48 | 41.50658 | -74.09363 | 471 ft | 69 kts | 257° |
| 2026-05-05 21:48 | 41.50520 | -74.10250 | 474 ft | 124 kts | 258° |
| 2026-05-05 21:49 | 41.50313 | -74.11579 | 566 ft | 162 kts | 259° |
| 2026-05-05 21:49 | 41.50130 | -74.13087 | 1051 ft | 163 kts | 260° |
| 2026-05-05 21:49 | 41.49948 | -74.14525 | 1755 ft | 151 kts | 258° |
| 2026-05-05 21:49 | 41.49750 | -74.15904 | 2265 ft | 155 kts | 256° |
| 2026-05-05 21:50 | 41.49517 | -74.17393 | 2494 ft | 172 kts | 255° |
| 2026-05-05 21:50 | 41.49267 | -74.19033 | 2634 ft | 190 kts | 262° |
| 2026-05-05 21:50 | 41.49371 | -74.20895 | 2707 ft | 214 kts | 281° |
| 2026-05-05 21:50 | 41.50095 | -74.22744 | 2852 ft | 241 kts | 306° |
| 2026-05-05 21:51 | 41.51591 | -74.24062 | 3102 ft | 278 kts | 339° |
| 2026-05-05 21:51 | 41.53553 | -74.24206 | 3815 ft | 291 kts | 8° |
| 2026-05-05 21:51 | 41.55441 | -74.23101 | 4515 ft | 304 kts | 37° |
| 2026-05-05 21:51 | 41.56808 | -74.20957 | 5289 ft | 307 kts | 63° |
| 2026-05-05 21:52 | 41.58594 | -74.15687 | 6740 ft | 313 kts | 65° |
| 2026-05-05 21:52 | 41.59588 | -74.13084 | 7495 ft | 316 kts | 60° |
| 2026-05-05 21:52 | 41.60681 | -74.10535 | 8155 ft | 322 kts | 58° |
| 2026-05-05 21:53 | 41.61829 | -74.07965 | 8975 ft | 322 kts | 58° |
| 2026-05-05 21:53 | 41.62990 | -74.05385 | 9689 ft | 326 kts | 58° |
| 2026-05-05 21:53 | 41.64167 | -74.02760 | 10260 ft | 333 kts | 57° |
| 2026-05-05 21:53 | 41.65394 | -74.00012 | 10473 ft | 356 kts | 57° |
| 2026-05-05 21:54 | 41.66690 | -73.97103 | 10704 ft | 374 kts | 57° |
| 2026-05-05 21:54 | 41.67931 | -73.94314 | 11080 ft | 383 kts | 57° |
| 2026-05-05 21:54 | 41.69334 | -73.91147 | 11756 ft | 387 kts | 57° |
| 2026-05-05 21:54 | 41.70717 | -73.88024 | 12361 ft | 392 kts | 56° |
| 2026-05-05 21:55 | 41.72114 | -73.84868 | 12991 ft | 396 kts | 56° |
| 2026-05-05 21:55 | 41.73529 | -73.81669 | 13563 ft | 402 kts | 55° |
| 2026-05-05 21:55 | 41.74959 | -73.78434 | 14169 ft | 404 kts | 56° |
| 2026-05-05 21:55 | 41.76389 | -73.75200 | 14813 ft | 404 kts | 56° |
| 2026-05-05 21:56 | 41.77824 | -73.71951 | 15409 ft | 406 kts | 56° |
| 2026-05-05 21:56 | 41.79265 | -73.68688 | 16012 ft | 408 kts | 56° |
| 2026-05-05 21:56 | 41.80695 | -73.65449 | 16590 ft | 410 kts | 56° |
| 2026-05-05 21:56 | 41.82150 | -73.62152 | 17130 ft | 412 kts | 57° |
| 2026-05-05 21:57 | 41.83612 | -73.58832 | 17385 ft | 414 kts | 57° |
| 2026-05-05 21:57 | 41.85074 | -73.55505 | 17295 ft | 414 kts | 57° |
| 2026-05-05 21:57 | 41.86532 | -73.52180 | 17033 ft | 411 kts | 57° |
| 2026-05-05 21:57 | 41.88127 | -73.49035 | 16790 ft | 404 kts | 43° |
| 2026-05-05 21:58 | 41.90272 | -73.46680 | 16538 ft | 395 kts | 24° |
| 2026-05-05 21:58 | 41.92792 | -73.45367 | 16279 ft | 382 kts | 5° |
| 2026-05-05 21:58 | 41.95383 | -73.45219 | 16051 ft | 366 kts | 345° |
| 2026-05-05 21:58 | 41.97779 | -73.46124 | 16012 ft | 355 kts | 332° |
| 2026-05-05 21:59 | 42.00061 | -73.47400 | 15994 ft | 356 kts | 330° |
| 2026-05-05 21:59 | 42.02349 | -73.48664 | 15994 ft | 356 kts | 332° |
| 2026-05-05 21:59 | 42.04681 | -73.49838 | 16000 ft | 359 kts | 334° |
| 2026-05-05 21:59 | 42.07011 | -73.50915 | 15984 ft | 359 kts | 335° |
| 2026-05-05 22:00 | 42.09436 | -73.51809 | 15967 ft | 363 kts | 343° |
| 2026-05-05 22:00 | 42.11939 | -73.52124 | 15956 ft | 371 kts | 354° |
| 2026-05-05 22:00 | 42.14536 | -73.51853 | 15971 ft | 377 kts | 1° |
| 2026-05-05 22:00 | 42.17135 | -73.51393 | 15962 ft | 377 kts | 1° |
| 2026-05-05 22:01 | 42.19743 | -73.50949 | 15978 ft | 376 kts | 1° |
| 2026-05-05 22:01 | 42.22343 | -73.50513 | 15980 ft | 376 kts | 1° |
| 2026-05-05 22:01 | 42.24946 | -73.50077 | 15983 ft | 377 kts | 1° |
| 2026-05-05 22:01 | 42.27552 | -73.49630 | 15986 ft | 377 kts | 2° |
| 2026-05-05 22:02 | 42.30146 | -73.49079 | 15986 ft | 378 kts | 3° |
| 2026-05-05 22:02 | 42.32734 | -73.48472 | 15997 ft | 379 kts | 4° |
| 2026-05-05 22:02 | 42.35347 | -73.47856 | 16138 ft | 382 kts | 4° |
| 2026-05-05 22:02 | 42.37967 | -73.47247 | 16786 ft | 382 kts | 4° |
| 2026-05-05 22:03 | 42.40592 | -73.46646 | 17388 ft | 384 kts | 4° |
| 2026-05-05 22:03 | 42.43238 | -73.46047 | 17921 ft | 388 kts | 4° |
| 2026-05-05 22:03 | 42.45880 | -73.45453 | 18309 ft | 394 kts | 4° |
| 2026-05-05 22:03 | 42.48586 | -73.44842 | 18822 ft | 396 kts | 4° |